sensor_id;sensor_type;location;lat;lon;timestamp;pressure;altitude;pressure_sealevel;temperature
24639;BMP180;1641;51.306;12.384;2024-01-10T00:01:00;101710.00;;;-7.50
24639;BMP180;1641;51.306;12.384;2024-01-10T00:03:25;101705.00;;;-7.40
24639;BMP180;1641;51.306;12.384;2024-01-10T00:05:50;101708.00;;;-7.50
24639;BMP180;1641;51.306;12.384;2024-01-10T00:08:16;101696.00;;;-7.30
24639;BMP180;1641;51.306;12.384;2024-01-10T00:10:41;101698.00;;;-7.40
24639;BMP180;1641;51.306;12.384;2024-01-10T00:13:09;101692.00;;;-7.50
24639;BMP180;1641;51.306;12.384;2024-01-10T00:15:34;101665.00;;;-7.30
24639;BMP180;1641;51.306;12.384;2024-01-10T00:17:59;101693.00;;;-7.10
24639;BMP180;1641;51.306;12.384;2024-01-10T00:20:27;101596.00;;;-7.20
24639;BMP180;1641;51.306;12.384;2024-01-10T00:22:53;101693.00;;;-7.00
24639;BMP180;1641;51.306;12.384;2024-01-10T00:25:18;101701.00;;;-6.90
24639;BMP180;1641;51.306;12.384;2024-01-10T00:27:43;101703.00;;;-7.00
24639;BMP180;1641;51.306;12.384;2024-01-10T00:30:09;101701.00;;;-7.10
24639;BMP180;1641;51.306;12.384;2024-01-10T00:32:34;101709.00;;;-7.20
24639;BMP180;1641;51.306;12.384;2024-01-10T00:34:59;101698.00;;;-7.10
24639;BMP180;1641;51.306;12.384;2024-01-10T00:37:26;101702.00;;;-7.20
24639;BMP180;1641;51.306;12.384;2024-01-10T00:39:52;101701.00;;;-7.00
24639;BMP180;1641;51.306;12.384;2024-01-10T00:42:17;101710.00;;;-6.90
24639;BMP180;1641;51.306;12.384;2024-01-10T00:44:43;101707.00;;;-7.00
24639;BMP180;1641;51.306;12.384;2024-01-10T00:47:11;101702.00;;;-7.20
24639;BMP180;1641;51.306;12.384;2024-01-10T00:49:37;101707.00;;;-7.00
24639;BMP180;1641;51.306;12.384;2024-01-10T00:52:02;101710.00;;;-6.90
24639;BMP180;1641;51.306;12.384;2024-01-10T00:54:28;101707.00;;;-7.00
24639;BMP180;1641;51.306;12.384;2024-01-10T00:56:53;101694.00;;;-7.20
24639;BMP180;1641;51.306;12.384;2024-01-10T00:59:18;101645.00;;;-7.40
24639;BMP180;1641;51.306;12.384;2024-01-10T01:01:43;101702.00;;;-7.50
24639;BMP180;1641;51.306;12.384;2024-01-10T01:04:09;101717.00;;;-7.30
24639;BMP180;1641;51.306;12.384;2024-01-10T01:06:34;101713.00;;;-7.30
24639;BMP180;1641;51.306;12.384;2024-01-10T01:08:59;101713.00;;;-7.30
24639;BMP180;1641;51.306;12.384;2024-01-10T01:11:24;101715.00;;;-7.20
24639;BMP180;1641;51.306;12.384;2024-01-10T01:13:50;101706.00;;;-8.00
24639;BMP180;1641;51.306;12.384;2024-01-10T01:16:18;101708.00;;;-8.10
24639;BMP180;1641;51.306;12.384;2024-01-10T01:18:44;101682.00;;;-8.00
24639;BMP180;1641;51.306;12.384;2024-01-10T01:21:11;101710.00;;;-8.10
24639;BMP180;1641;51.306;12.384;2024-01-10T01:23:36;101716.00;;;-7.90
24639;BMP180;1641;51.306;12.384;2024-01-10T01:26:01;101713.00;;;-7.60
24639;BMP180;1641;51.306;12.384;2024-01-10T01:28:27;101709.00;;;-7.40
24639;BMP180;1641;51.306;12.384;2024-01-10T01:30:52;101705.00;;;-7.50
24639;BMP180;1641;51.306;12.384;2024-01-10T01:33:17;101718.00;;;-7.40
24639;BMP180;1641;51.306;12.384;2024-01-10T01:35:42;101712.00;;;-7.30
24639;BMP180;1641;51.306;12.384;2024-01-10T01:38:07;101714.00;;;-7.70
24639;BMP180;1641;51.306;12.384;2024-01-10T01:40:33;101708.00;;;-8.20
24639;BMP180;1641;51.306;12.384;2024-01-10T01:42:58;101703.00;;;-8.20
24639;BMP180;1641;51.306;12.384;2024-01-10T01:45:23;101700.00;;;-8.10
24639;BMP180;1641;51.306;12.384;2024-01-10T01:47:49;101697.00;;;-8.00
24639;BMP180;1641;51.306;12.384;2024-01-10T01:50:15;101682.00;;;-7.90
24639;BMP180;1641;51.306;12.384;2024-01-10T01:52:40;101690.00;;;-7.90
24639;BMP180;1641;51.306;12.384;2024-01-10T01:55:07;101664.00;;;-8.10
24639;BMP180;1641;51.306;12.384;2024-01-10T01:57:33;101684.00;;;-7.90
24639;BMP180;1641;51.306;12.384;2024-01-10T01:59:58;101678.00;;;-8.10
24639;BMP180;1641;51.306;12.384;2024-01-10T02:02:24;101670.00;;;-8.40
24639;BMP180;1641;51.306;12.384;2024-01-10T02:04:50;101656.00;;;-8.20
24639;BMP180;1641;51.306;12.384;2024-01-10T02:07:15;101687.00;;;-7.90
24639;BMP180;1641;51.306;12.384;2024-01-10T02:09:43;101675.00;;;-7.80
24639;BMP180;1641;51.306;12.384;2024-01-10T02:12:09;101683.00;;;-7.90
24639;BMP180;1641;51.306;12.384;2024-01-10T02:14:34;101681.00;;;-7.80
24639;BMP180;1641;51.306;12.384;2024-01-10T02:16:59;101682.00;;;-7.60
24639;BMP180;1641;51.306;12.384;2024-01-10T02:19:25;101691.00;;;-7.80
24639;BMP180;1641;51.306;12.384;2024-01-10T02:21:51;101681.00;;;-7.80
24639;BMP180;1641;51.306;12.384;2024-01-10T02:24:17;101690.00;;;-7.50
24639;BMP180;1641;51.306;12.384;2024-01-10T02:26:43;101671.00;;;-7.60
24639;BMP180;1641;51.306;12.384;2024-01-10T02:29:08;101682.00;;;-7.90
24639;BMP180;1641;51.306;12.384;2024-01-10T02:31:33;101676.00;;;-8.30
24639;BMP180;1641;51.306;12.384;2024-01-10T02:33:59;101626.00;;;-8.50
24639;BMP180;1641;51.306;12.384;2024-01-10T02:36:24;101637.00;;;-8.20
24639;BMP180;1641;51.306;12.384;2024-01-10T02:38:53;101670.00;;;-8.50
24639;BMP180;1641;51.306;12.384;2024-01-10T02:41:19;101666.00;;;-8.60
24639;BMP180;1641;51.306;12.384;2024-01-10T02:43:44;101679.00;;;-8.40
24639;BMP180;1641;51.306;12.384;2024-01-10T02:46:09;101672.00;;;-8.20
24639;BMP180;1641;51.306;12.384;2024-01-10T02:48:35;101667.00;;;-8.40
24639;BMP180;1641;51.306;12.384;2024-01-10T02:51:00;101670.00;;;-8.80
24639;BMP180;1641;51.306;12.384;2024-01-10T02:53:25;101659.00;;;-8.70
24639;BMP180;1641;51.306;12.384;2024-01-10T02:55:51;101663.00;;;-8.70
24639;BMP180;1641;51.306;12.384;2024-01-10T02:58:22;101667.00;;;-8.70
24639;BMP180;1641;51.306;12.384;2024-01-10T03:00:50;101663.00;;;-8.70
24639;BMP180;1641;51.306;12.384;2024-01-10T03:03:15;101658.00;;;-8.90
24639;BMP180;1641;51.306;12.384;2024-01-10T03:05:41;101659.00;;;-8.90
24639;BMP180;1641;51.306;12.384;2024-01-10T03:08:06;101659.00;;;-8.70
24639;BMP180;1641;51.306;12.384;2024-01-10T03:10:35;101654.00;;;-8.60
24639;BMP180;1641;51.306;12.384;2024-01-10T03:13:00;101652.00;;;-8.60
24639;BMP180;1641;51.306;12.384;2024-01-10T03:15:25;101649.00;;;-8.60
24639;BMP180;1641;51.306;12.384;2024-01-10T03:17:53;101650.00;;;-8.10
24639;BMP180;1641;51.306;12.384;2024-01-10T03:20:19;101652.00;;;-8.00
24639;BMP180;1641;51.306;12.384;2024-01-10T03:22:44;101625.00;;;-8.40
24639;BMP180;1641;51.306;12.384;2024-01-10T03:25:09;101628.00;;;-8.70
24639;BMP180;1641;51.306;12.384;2024-01-10T03:27:34;101638.00;;;-8.40
24639;BMP180;1641;51.306;12.384;2024-01-10T03:30:00;101619.00;;;-8.10
24639;BMP180;1641;51.306;12.384;2024-01-10T03:32:25;101637.00;;;-7.90
24639;BMP180;1641;51.306;12.384;2024-01-10T03:34:50;101637.00;;;-8.10
24639;BMP180;1641;51.306;12.384;2024-01-10T03:37:17;101645.00;;;-8.00
24639;BMP180;1641;51.306;12.384;2024-01-10T03:39:43;101636.00;;;-7.90
24639;BMP180;1641;51.306;12.384;2024-01-10T03:42:08;101634.00;;;-7.60
24639;BMP180;1641;51.306;12.384;2024-01-10T03:44:33;101648.00;;;-7.80
24639;BMP180;1641;51.306;12.384;2024-01-10T03:46:59;101633.00;;;-7.70
24639;BMP180;1641;51.306;12.384;2024-01-10T03:49:24;101613.00;;;-7.90
24639;BMP180;1641;51.306;12.384;2024-01-10T03:51:49;101635.00;;;-7.80
24639;BMP180;1641;51.306;12.384;2024-01-10T03:54:14;101647.00;;;-8.00
24639;BMP180;1641;51.306;12.384;2024-01-10T03:56:40;101635.00;;;-7.90
24639;BMP180;1641;51.306;12.384;2024-01-10T03:59:05;101632.00;;;-7.70
24639;BMP180;1641;51.306;12.384;2024-01-10T04:01:30;101631.00;;;-7.90
24639;BMP180;1641;51.306;12.384;2024-01-10T04:03:55;101624.00;;;-7.90
24639;BMP180;1641;51.306;12.384;2024-01-10T04:06:21;101632.00;;;-8.00
24639;BMP180;1641;51.306;12.384;2024-01-10T04:08:46;101625.00;;;-7.90
24639;BMP180;1641;51.306;12.384;2024-01-10T04:11:11;101628.00;;;-7.90
24639;BMP180;1641;51.306;12.384;2024-01-10T04:13:36;101632.00;;;-8.00
24639;BMP180;1641;51.306;12.384;2024-01-10T04:16:02;101614.00;;;-8.10
24639;BMP180;1641;51.306;12.384;2024-01-10T04:18:27;101630.00;;;-8.00
24639;BMP180;1641;51.306;12.384;2024-01-10T04:20:52;101616.00;;;-8.10
24639;BMP180;1641;51.306;12.384;2024-01-10T04:23:17;101614.00;;;-8.50
24639;BMP180;1641;51.306;12.384;2024-01-10T04:25:43;101619.00;;;-8.40
24639;BMP180;1641;51.306;12.384;2024-01-10T04:28:11;101617.00;;;-8.40
24639;BMP180;1641;51.306;12.384;2024-01-10T04:30:36;101625.00;;;-8.40
24639;BMP180;1641;51.306;12.384;2024-01-10T04:33:01;101619.00;;;-8.40
24639;BMP180;1641;51.306;12.384;2024-01-10T04:35:27;101628.00;;;-8.30
24639;BMP180;1641;51.306;12.384;2024-01-10T04:37:52;101635.00;;;-8.10
24639;BMP180;1641;51.306;12.384;2024-01-10T04:40:17;101642.00;;;-8.00
24639;BMP180;1641;51.306;12.384;2024-01-10T04:42:44;101638.00;;;-8.10
24639;BMP180;1641;51.306;12.384;2024-01-10T04:45:12;101643.00;;;-8.20
24639;BMP180;1641;51.306;12.384;2024-01-10T04:47:37;101637.00;;;-8.40
24639;BMP180;1641;51.306;12.384;2024-01-10T04:50:03;101638.00;;;-8.40
24639;BMP180;1641;51.306;12.384;2024-01-10T04:52:28;101637.00;;;-8.30
24639;BMP180;1641;51.306;12.384;2024-01-10T04:54:56;101633.00;;;-8.30
24639;BMP180;1641;51.306;12.384;2024-01-10T04:57:21;101626.00;;;-8.20
24639;BMP180;1641;51.306;12.384;2024-01-10T04:59:46;101632.00;;;-8.10
24639;BMP180;1641;51.306;12.384;2024-01-10T05:02:12;101618.00;;;-8.40
24639;BMP180;1641;51.306;12.384;2024-01-10T05:04:37;101638.00;;;-8.50
24639;BMP180;1641;51.306;12.384;2024-01-10T05:07:02;101636.00;;;-8.40
24639;BMP180;1641;51.306;12.384;2024-01-10T05:09:28;101639.00;;;-8.30
24639;BMP180;1641;51.306;12.384;2024-01-10T05:11:53;101646.00;;;-8.20
24639;BMP180;1641;51.306;12.384;2024-01-10T05:14:19;101645.00;;;-8.20
24639;BMP180;1641;51.306;12.384;2024-01-10T05:16:45;101635.00;;;-8.20
24639;BMP180;1641;51.306;12.384;2024-01-10T05:19:10;101640.00;;;-8.30
24639;BMP180;1641;51.306;12.384;2024-01-10T05:21:36;101650.00;;;-7.90
24639;BMP180;1641;51.306;12.384;2024-01-10T05:24:01;101639.00;;;-7.80
24639;BMP180;1641;51.306;12.384;2024-01-10T05:26:26;101624.00;;;-7.80
24639;BMP180;1641;51.306;12.384;2024-01-10T05:28:52;101636.00;;;-7.80
24639;BMP180;1641;51.306;12.384;2024-01-10T05:31:17;101629.00;;;-7.90
24639;BMP180;1641;51.306;12.384;2024-01-10T05:33:42;101627.00;;;-8.20
24639;BMP180;1641;51.306;12.384;2024-01-10T05:36:09;101636.00;;;-8.40
24639;BMP180;1641;51.306;12.384;2024-01-10T05:38:37;101613.00;;;-8.20
24639;BMP180;1641;51.306;12.384;2024-01-10T05:41:02;101644.00;;;-8.20
24639;BMP180;1641;51.306;12.384;2024-01-10T05:43:27;101632.00;;;-8.10
24639;BMP180;1641;51.306;12.384;2024-01-10T05:45:52;101638.00;;;-8.00
24639;BMP180;1641;51.306;12.384;2024-01-10T05:48:18;101636.00;;;-8.00
24639;BMP180;1641;51.306;12.384;2024-01-10T05:50:44;101639.00;;;-8.10
24639;BMP180;1641;51.306;12.384;2024-01-10T05:53:09;101635.00;;;-8.00
24639;BMP180;1641;51.306;12.384;2024-01-10T05:55:35;101640.00;;;-8.10
24639;BMP180;1641;51.306;12.384;2024-01-10T05:58:01;101630.00;;;-8.30
24639;BMP180;1641;51.306;12.384;2024-01-10T06:00:27;101639.00;;;-9.10
24639;BMP180;1641;51.306;12.384;2024-01-10T06:02:53;101640.00;;;-9.40
24639;BMP180;1641;51.306;12.384;2024-01-10T06:05:18;101649.00;;;-9.00
24639;BMP180;1641;51.306;12.384;2024-01-10T06:07:43;101651.00;;;-8.90
24639;BMP180;1641;51.306;12.384;2024-01-10T06:10:10;101631.00;;;-9.00
24639;BMP180;1641;51.306;12.384;2024-01-10T06:12:35;101625.00;;;-8.90
24639;BMP180;1641;51.306;12.384;2024-01-10T06:15:01;101642.00;;;-8.60
24639;BMP180;1641;51.306;12.384;2024-01-10T06:17:26;101638.00;;;-8.70
24639;BMP180;1641;51.306;12.384;2024-01-10T06:19:52;101618.00;;;-8.80
24639;BMP180;1641;51.306;12.384;2024-01-10T06:22:17;101623.00;;;-8.70
24639;BMP180;1641;51.306;12.384;2024-01-10T06:24:43;101630.00;;;-8.50
24639;BMP180;1641;51.306;12.384;2024-01-10T06:27:09;101623.00;;;-8.80
24639;BMP180;1641;51.306;12.384;2024-01-10T06:29:37;101632.00;;;-8.60
24639;BMP180;1641;51.306;12.384;2024-01-10T06:32:03;101618.00;;;-8.60
24639;BMP180;1641;51.306;12.384;2024-01-10T06:34:29;101603.00;;;-8.80
24639;BMP180;1641;51.306;12.384;2024-01-10T06:36:54;101626.00;;;-8.60
24639;BMP180;1641;51.306;12.384;2024-01-10T06:39:19;101601.00;;;-9.10
24639;BMP180;1641;51.306;12.384;2024-01-10T06:41:48;101613.00;;;-8.90
24639;BMP180;1641;51.306;12.384;2024-01-10T06:44:13;101583.00;;;-9.20
24639;BMP180;1641;51.306;12.384;2024-01-10T06:46:39;101592.00;;;-9.00
24639;BMP180;1641;51.306;12.384;2024-01-10T06:49:04;101609.00;;;-8.80
24639;BMP180;1641;51.306;12.384;2024-01-10T06:51:29;101590.00;;;-8.80
24639;BMP180;1641;51.306;12.384;2024-01-10T06:53:55;101614.00;;;-8.60
24639;BMP180;1641;51.306;12.384;2024-01-10T06:56:27;101601.00;;;-9.00
24639;BMP180;1641;51.306;12.384;2024-01-10T06:58:53;101625.00;;;-8.60
24639;BMP180;1641;51.306;12.384;2024-01-10T07:01:19;101616.00;;;-8.60
24639;BMP180;1641;51.306;12.384;2024-01-10T07:03:49;101555.00;;;-8.50
24639;BMP180;1641;51.306;12.384;2024-01-10T07:06:17;101609.00;;;-8.30
24639;BMP180;1641;51.306;12.384;2024-01-10T07:08:48;101559.00;;;-8.20
24639;BMP180;1641;51.306;12.384;2024-01-10T07:11:14;101590.00;;;-8.20
24639;BMP180;1641;51.306;12.384;2024-01-10T07:13:40;101596.00;;;-8.20
24639;BMP180;1641;51.306;12.384;2024-01-10T07:16:06;101613.00;;;-8.30
24639;BMP180;1641;51.306;12.384;2024-01-10T07:18:31;101613.00;;;-8.40
24639;BMP180;1641;51.306;12.384;2024-01-10T07:20:56;101609.00;;;-8.40
24639;BMP180;1641;51.306;12.384;2024-01-10T07:23:22;101606.00;;;-8.60
24639;BMP180;1641;51.306;12.384;2024-01-10T07:25:50;101583.00;;;-8.20
24639;BMP180;1641;51.306;12.384;2024-01-10T07:28:16;101605.00;;;-8.20
24639;BMP180;1641;51.306;12.384;2024-01-10T07:30:42;101585.00;;;-8.50
24639;BMP180;1641;51.306;12.384;2024-01-10T07:33:09;101585.00;;;-8.30
24639;BMP180;1641;51.306;12.384;2024-01-10T07:35:34;101612.00;;;-8.30
24639;BMP180;1641;51.306;12.384;2024-01-10T07:37:59;101625.00;;;-8.20
24639;BMP180;1641;51.306;12.384;2024-01-10T07:40:25;101632.00;;;-8.40
24639;BMP180;1641;51.306;12.384;2024-01-10T07:42:50;101641.00;;;-8.40
24639;BMP180;1641;51.306;12.384;2024-01-10T07:45:16;101636.00;;;-8.50
24639;BMP180;1641;51.306;12.384;2024-01-10T07:47:41;101638.00;;;-8.90
24639;BMP180;1641;51.306;12.384;2024-01-10T07:50:10;101644.00;;;-8.80
24639;BMP180;1641;51.306;12.384;2024-01-10T07:52:35;101633.00;;;-8.80
24639;BMP180;1641;51.306;12.384;2024-01-10T07:55:01;101640.00;;;-8.70
24639;BMP180;1641;51.306;12.384;2024-01-10T07:57:30;101639.00;;;-8.90
24639;BMP180;1641;51.306;12.384;2024-01-10T07:59:55;101622.00;;;-8.80
24639;BMP180;1641;51.306;12.384;2024-01-10T08:02:21;101614.00;;;-8.70
24639;BMP180;1641;51.306;12.384;2024-01-10T08:04:46;101573.00;;;-8.40
24639;BMP180;1641;51.306;12.384;2024-01-10T08:07:11;101646.00;;;-8.80
24639;BMP180;1641;51.306;12.384;2024-01-10T08:09:37;101624.00;;;-8.60
24639;BMP180;1641;51.306;12.384;2024-01-10T08:12:05;101652.00;;;-8.30
24639;BMP180;1641;51.306;12.384;2024-01-10T08:14:30;101652.00;;;-7.80
24639;BMP180;1641;51.306;12.384;2024-01-10T08:16:56;101642.00;;;-7.90
24639;BMP180;1641;51.306;12.384;2024-01-10T08:19:26;101638.00;;;-8.00
24639;BMP180;1641;51.306;12.384;2024-01-10T08:21:52;101634.00;;;-7.10
24639;BMP180;1641;51.306;12.384;2024-01-10T08:24:18;101627.00;;;-5.80
24639;BMP180;1641;51.306;12.384;2024-01-10T08:26:44;101575.00;;;-4.30
24639;BMP180;1641;51.306;12.384;2024-01-10T08:29:11;101636.00;;;-3.60
24639;BMP180;1641;51.306;12.384;2024-01-10T08:31:37;101642.00;;;-2.40
24639;BMP180;1641;51.306;12.384;2024-01-10T08:34:04;101648.00;;;-1.70
24639;BMP180;1641;51.306;12.384;2024-01-10T08:36:29;101643.00;;;-1.80
24639;BMP180;1641;51.306;12.384;2024-01-10T08:38:54;101635.00;;;-0.80
24639;BMP180;1641;51.306;12.384;2024-01-10T08:41:19;101651.00;;;0.20
24639;BMP180;1641;51.306;12.384;2024-01-10T08:43:48;101605.00;;;-0.30
24639;BMP180;1641;51.306;12.384;2024-01-10T08:46:13;101632.00;;;0.00
24639;BMP180;1641;51.306;12.384;2024-01-10T08:48:38;101583.00;;;0.10
24639;BMP180;1641;51.306;12.384;2024-01-10T08:51:04;101646.00;;;0.10
24639;BMP180;1641;51.306;12.384;2024-01-10T08:53:29;101655.00;;;1.20
24639;BMP180;1641;51.306;12.384;2024-01-10T08:55:55;101651.00;;;1.10
24639;BMP180;1641;51.306;12.384;2024-01-10T08:58:20;101662.00;;;1.90
24639;BMP180;1641;51.306;12.384;2024-01-10T09:00:46;101657.00;;;0.80
24639;BMP180;1641;51.306;12.384;2024-01-10T09:03:11;101653.00;;;1.20
24639;BMP180;1641;51.306;12.384;2024-01-10T09:05:37;101659.00;;;0.50
24639;BMP180;1641;51.306;12.384;2024-01-10T09:08:03;101644.00;;;1.40
24639;BMP180;1641;51.306;12.384;2024-01-10T09:10:28;101574.00;;;1.80
24639;BMP180;1641;51.306;12.384;2024-01-10T09:12:54;101651.00;;;1.20
24639;BMP180;1641;51.306;12.384;2024-01-10T09:15:19;101656.00;;;1.90
24639;BMP180;1641;51.306;12.384;2024-01-10T09:17:45;101661.00;;;0.60
24639;BMP180;1641;51.306;12.384;2024-01-10T09:20:11;101630.00;;;1.00
24639;BMP180;1641;51.306;12.384;2024-01-10T09:22:40;101630.00;;;0.50
24639;BMP180;1641;51.306;12.384;2024-01-10T09:25:06;101673.00;;;0.50
24639;BMP180;1641;51.306;12.384;2024-01-10T09:27:32;101667.00;;;-0.70
24639;BMP180;1641;51.306;12.384;2024-01-10T09:29:59;101656.00;;;-2.90
24639;BMP180;1641;51.306;12.384;2024-01-10T09:32:25;101639.00;;;-3.50
24639;BMP180;1641;51.306;12.384;2024-01-10T09:34:50;101653.00;;;-3.80
24639;BMP180;1641;51.306;12.384;2024-01-10T09:37:15;101657.00;;;-4.20
24639;BMP180;1641;51.306;12.384;2024-01-10T09:39:41;101641.00;;;-4.60
24639;BMP180;1641;51.306;12.384;2024-01-10T09:42:06;101655.00;;;-4.70
24639;BMP180;1641;51.306;12.384;2024-01-10T09:44:32;101646.00;;;-4.80
24639;BMP180;1641;51.306;12.384;2024-01-10T09:46:58;101619.00;;;-4.80
24639;BMP180;1641;51.306;12.384;2024-01-10T09:49:23;101636.00;;;-4.70
24639;BMP180;1641;51.306;12.384;2024-01-10T09:51:57;101603.00;;;-5.00
24639;BMP180;1641;51.306;12.384;2024-01-10T09:54:25;101648.00;;;-5.10
24639;BMP180;1641;51.306;12.384;2024-01-10T09:56:51;101642.00;;;-5.10
24639;BMP180;1641;51.306;12.384;2024-01-10T09:59:16;101638.00;;;-4.60
24639;BMP180;1641;51.306;12.384;2024-01-10T10:01:42;101641.00;;;-4.50
24639;BMP180;1641;51.306;12.384;2024-01-10T10:04:11;101645.00;;;-4.70
24639;BMP180;1641;51.306;12.384;2024-01-10T10:06:37;101625.00;;;-4.90
24639;BMP180;1641;51.306;12.384;2024-01-10T10:09:02;101633.00;;;-4.50
24639;BMP180;1641;51.306;12.384;2024-01-10T10:11:27;101633.00;;;-4.50
24639;BMP180;1641;51.306;12.384;2024-01-10T10:13:53;101634.00;;;-4.70
24639;BMP180;1641;51.306;12.384;2024-01-10T10:16:25;101628.00;;;-4.80
24639;BMP180;1641;51.306;12.384;2024-01-10T10:18:54;101616.00;;;-4.90
24639;BMP180;1641;51.306;12.384;2024-01-10T10:21:24;101621.00;;;-4.80
24639;BMP180;1641;51.306;12.384;2024-01-10T10:24:01;101616.00;;;-4.80
24639;BMP180;1641;51.306;12.384;2024-01-10T10:26:27;101587.00;;;-4.60
24639;BMP180;1641;51.306;12.384;2024-01-10T10:28:54;101612.00;;;-4.90
24639;BMP180;1641;51.306;12.384;2024-01-10T10:31:21;101618.00;;;-5.10
24639;BMP180;1641;51.306;12.384;2024-01-10T10:33:48;101594.00;;;-4.90
24639;BMP180;1641;51.306;12.384;2024-01-10T10:36:14;101562.00;;;-4.50
24639;BMP180;1641;51.306;12.384;2024-01-10T10:38:40;101608.00;;;-4.80
24639;BMP180;1641;51.306;12.384;2024-01-10T10:41:06;101600.00;;;-5.20
24639;BMP180;1641;51.306;12.384;2024-01-10T10:43:39;101609.00;;;-4.60
24639;BMP180;1641;51.306;12.384;2024-01-10T10:46:11;101606.00;;;-4.70
24639;BMP180;1641;51.306;12.384;2024-01-10T10:48:40;101612.00;;;-4.90
24639;BMP180;1641;51.306;12.384;2024-01-10T10:51:10;101559.00;;;-4.40
24639;BMP180;1641;51.306;12.384;2024-01-10T10:53:37;101598.00;;;-4.80
24639;BMP180;1641;51.306;12.384;2024-01-10T10:56:07;101585.00;;;-4.40
24639;BMP180;1641;51.306;12.384;2024-01-10T10:58:42;101600.00;;;-4.20
24639;BMP180;1641;51.306;12.384;2024-01-10T11:01:11;101599.00;;;-4.00
24639;BMP180;1641;51.306;12.384;2024-01-10T11:03:41;101604.00;;;-3.70
24639;BMP180;1641;51.306;12.384;2024-01-10T11:06:12;101603.00;;;-3.60
24639;BMP180;1641;51.306;12.384;2024-01-10T11:08:42;101612.00;;;-3.30
24639;BMP180;1641;51.306;12.384;2024-01-10T11:11:24;101562.00;;;-3.50
24639;BMP180;1641;51.306;12.384;2024-01-10T11:14:18;101600.00;;;-3.30
24639;BMP180;1641;51.306;12.384;2024-01-10T11:22:35;101595.00;;;-3.40
24639;BMP180;1641;51.306;12.384;2024-01-10T11:25:04;101591.00;;;-3.80
24639;BMP180;1641;51.306;12.384;2024-01-10T11:27:30;101588.00;;;-3.50
24639;BMP180;1641;51.306;12.384;2024-01-10T11:29:55;101597.00;;;-3.20
24639;BMP180;1641;51.306;12.384;2024-01-10T11:32:22;101589.00;;;-3.20
24639;BMP180;1641;51.306;12.384;2024-01-10T11:37:18;101595.00;;;-3.30
24639;BMP180;1641;51.306;12.384;2024-01-10T11:39:44;101580.00;;;-3.40
24639;BMP180;1641;51.306;12.384;2024-01-10T11:42:21;101585.00;;;-3.50
24639;BMP180;1641;51.306;12.384;2024-01-10T11:44:48;101585.00;;;-3.10
24639;BMP180;1641;51.306;12.384;2024-01-10T11:47:21;101580.00;;;-3.10
24639;BMP180;1641;51.306;12.384;2024-01-10T11:49:57;101573.00;;;-2.70
24639;BMP180;1641;51.306;12.384;2024-01-10T11:52:33;101581.00;;;-2.80
24639;BMP180;1641;51.306;12.384;2024-01-10T11:55:02;101582.00;;;-3.30
24639;BMP180;1641;51.306;12.384;2024-01-10T11:57:29;101578.00;;;-3.00
24639;BMP180;1641;51.306;12.384;2024-01-10T11:59:57;101574.00;;;-3.20
24639;BMP180;1641;51.306;12.384;2024-01-10T12:02:25;101579.00;;;-3.00
24639;BMP180;1641;51.306;12.384;2024-01-10T12:05:04;101572.00;;;-2.80
24639;BMP180;1641;51.306;12.384;2024-01-10T12:07:29;101584.00;;;-3.00
24639;BMP180;1641;51.306;12.384;2024-01-10T12:09:58;101560.00;;;-2.70
24639;BMP180;1641;51.306;12.384;2024-01-10T12:12:23;101566.00;;;-2.30
24639;BMP180;1641;51.306;12.384;2024-01-10T12:14:51;101568.00;;;-2.40
24639;BMP180;1641;51.306;12.384;2024-01-10T12:17:20;101565.00;;;-2.60
24639;BMP180;1641;51.306;12.384;2024-01-10T12:19:45;101565.00;;;-2.20
24639;BMP180;1641;51.306;12.384;2024-01-10T12:22:12;101539.00;;;-2.70
24639;BMP180;1641;51.306;12.384;2024-01-10T12:24:47;101567.00;;;-2.90
24639;BMP180;1641;51.306;12.384;2024-01-10T12:27:16;101559.00;;;-2.70
24639;BMP180;1641;51.306;12.384;2024-01-10T12:29:41;101561.00;;;-2.40
24639;BMP180;1641;51.306;12.384;2024-01-10T12:32:08;101557.00;;;-2.60
24639;BMP180;1641;51.306;12.384;2024-01-10T12:34:37;101558.00;;;-2.60
24639;BMP180;1641;51.306;12.384;2024-01-10T12:37:03;101535.00;;;-2.40
24639;BMP180;1641;51.306;12.384;2024-01-10T12:39:28;101555.00;;;-2.40
24639;BMP180;1641;51.306;12.384;2024-01-10T12:41:57;101545.00;;;-2.10
24639;BMP180;1641;51.306;12.384;2024-01-10T12:44:27;101552.00;;;-2.40
24639;BMP180;1641;51.306;12.384;2024-01-10T12:46:52;101553.00;;;-2.50
24639;BMP180;1641;51.306;12.384;2024-01-10T12:49:18;101557.00;;;-2.00
24639;BMP180;1641;51.306;12.384;2024-01-10T12:51:43;101557.00;;;-2.00
24639;BMP180;1641;51.306;12.384;2024-01-10T12:54:08;101558.00;;;-1.60
24639;BMP180;1641;51.306;12.384;2024-01-10T12:56:34;101548.00;;;-1.60
24639;BMP180;1641;51.306;12.384;2024-01-10T12:59:00;101535.00;;;-1.70
24639;BMP180;1641;51.306;12.384;2024-01-10T13:01:28;101546.00;;;-1.60
24639;BMP180;1641;51.306;12.384;2024-01-10T13:03:54;101527.00;;;-2.50
24639;BMP180;1641;51.306;12.384;2024-01-10T13:06:20;101545.00;;;-2.30
24639;BMP180;1641;51.306;12.384;2024-01-10T13:08:48;101543.00;;;-2.30
24639;BMP180;1641;51.306;12.384;2024-01-10T13:11:13;101541.00;;;-1.90
24639;BMP180;1641;51.306;12.384;2024-01-10T13:13:39;101537.00;;;-1.40
24639;BMP180;1641;51.306;12.384;2024-01-10T13:16:05;101549.00;;;-1.50
24639;BMP180;1641;51.306;12.384;2024-01-10T13:18:33;101543.00;;;-1.70
24639;BMP180;1641;51.306;12.384;2024-01-10T13:21:05;101539.00;;;-1.80
24639;BMP180;1641;51.306;12.384;2024-01-10T13:23:31;101543.00;;;-1.80
24639;BMP180;1641;51.306;12.384;2024-01-10T13:26:02;101539.00;;;-2.40
24639;BMP180;1641;51.306;12.384;2024-01-10T13:28:28;101535.00;;;-2.20
24639;BMP180;1641;51.306;12.384;2024-01-10T13:30:54;101535.00;;;-1.90
24639;BMP180;1641;51.306;12.384;2024-01-10T13:33:21;101517.00;;;-1.70
24639;BMP180;1641;51.306;12.384;2024-01-10T13:35:49;101539.00;;;-1.60
24639;BMP180;1641;51.306;12.384;2024-01-10T13:38:15;101529.00;;;-1.70
24639;BMP180;1641;51.306;12.384;2024-01-10T13:40:41;101536.00;;;-1.70
24639;BMP180;1641;51.306;12.384;2024-01-10T13:43:06;101538.00;;;-1.50
24639;BMP180;1641;51.306;12.384;2024-01-10T13:45:31;101542.00;;;-2.00
24639;BMP180;1641;51.306;12.384;2024-01-10T13:47:57;101535.00;;;-2.10
24639;BMP180;1641;51.306;12.384;2024-01-10T13:50:22;101522.00;;;-2.00
24639;BMP180;1641;51.306;12.384;2024-01-10T13:52:49;101525.00;;;-2.10
24639;BMP180;1641;51.306;12.384;2024-01-10T13:55:14;101532.00;;;-2.30
24639;BMP180;1641;51.306;12.384;2024-01-10T13:57:40;101524.00;;;-2.10
24639;BMP180;1641;51.306;12.384;2024-01-10T14:00:06;101528.00;;;-2.00